Airport Name : Jubail

Other Name : Jubail

ICAO : OEJB

IATA : QJB

FAA :

Latitude : 27.039028

Longitude : 49.405083

Country : Saudi Arabia

Local Date and Time : 09 Mar 2021 04:57

 

TAF (Terminal Aerodrome Forecast)

 

METAR (METeorological Aerodrome Report)

OEJB 090100Z AUTO 12006KT CAVOK 16/08 Q1011 NOSIG

OEJB 090000Z AUTO 15006KT CAVOK 18/04 Q1011 NOSIG

OEJB 082300Z AUTO 15007KT CAVOK 18/06 Q1011 NOSIG

OEJB 082200Z AUTO 15010KT CAVOK 18/07 Q1011 NOSIG

To Charter a Jet Click here.